sensor_id;sensor_type;location;lat;lon;timestamp;P1;durP1;ratioP1;P2;durP2;ratioP2
53961;SDS011;39868;53.398;6.564;2022-08-06T00:02:23;1.30;;;1.30;;
53961;SDS011;39868;53.398;6.564;2022-08-06T00:04:57;1.70;;;1.60;;
53961;SDS011;39868;53.398;6.564;2022-08-06T00:07:29;2.33;;;1.90;;
53961;SDS011;39868;53.398;6.564;2022-08-06T00:10:11;1.63;;;1.42;;
53961;SDS011;39868;53.398;6.564;2022-08-06T00:12:40;1.58;;;1.40;;
53961;SDS011;39868;53.398;6.564;2022-08-06T00:15:10;1.48;;;1.48;;
53961;SDS011;39868;53.398;6.564;2022-08-06T00:17:46;1.70;;;1.60;;
53961;SDS011;39868;53.398;6.564;2022-08-06T00:20:16;1.65;;;1.40;;
53961;SDS011;39868;53.398;6.564;2022-08-06T00:22:52;1.30;;;1.30;;
53961;SDS011;39868;53.398;6.564;2022-08-06T00:25:20;1.70;;;1.60;;
53961;SDS011;39868;53.398;6.564;2022-08-06T00:27:47;1.55;;;1.45;;
53961;SDS011;39868;53.398;6.564;2022-08-06T00:30:18;1.38;;;1.38;;
53961;SDS011;39868;53.398;6.564;2022-08-06T00:32:48;1.60;;;1.50;;
53961;SDS011;39868;53.398;6.564;2022-08-06T00:35:21;1.60;;;1.50;;
53961;SDS011;39868;53.398;6.564;2022-08-06T00:37:55;1.85;;;1.50;;
53961;SDS011;39868;53.398;6.564;2022-08-06T00:40:29;1.70;;;1.60;;
53961;SDS011;39868;53.398;6.564;2022-08-06T00:42:57;1.70;;;1.60;;
53961;SDS011;39868;53.398;6.564;2022-08-06T00:45:32;3.10;;;1.70;;
53961;SDS011;39868;53.398;6.564;2022-08-06T00:48:11;1.33;;;1.33;;
53961;SDS011;39868;53.398;6.564;2022-08-06T00:51:00;1.80;;;1.70;;
53961;SDS011;39868;53.398;6.564;2022-08-06T00:53:28;1.60;;;1.50;;
53961;SDS011;39868;53.398;6.564;2022-08-06T00:55:59;1.40;;;1.40;;
53961;SDS011;39868;53.398;6.564;2022-08-06T00:58:36;1.60;;;1.50;;
53961;SDS011;39868;53.398;6.564;2022-08-06T01:01:10;1.70;;;1.60;;
53961;SDS011;39868;53.398;6.564;2022-08-06T01:03:46;1.80;;;1.70;;
53961;SDS011;39868;53.398;6.564;2022-08-06T01:06:20;2.53;;;1.80;;
53961;SDS011;39868;53.398;6.564;2022-08-06T01:09:08;1.50;;;1.50;;
53961;SDS011;39868;53.398;6.564;2022-08-06T01:11:37;1.80;;;1.70;;
53961;SDS011;39868;53.398;6.564;2022-08-06T01:14:05;1.88;;;1.77;;
53961;SDS011;39868;53.398;6.564;2022-08-06T01:16:53;1.67;;;1.65;;
53961;SDS011;39868;53.398;6.564;2022-08-06T01:19:30;1.58;;;1.48;;
53961;SDS011;39868;53.398;6.564;2022-08-06T01:22:42;1.50;;;1.40;;
53961;SDS011;39868;53.398;6.564;2022-08-06T01:25:20;1.30;;;1.30;;
53961;SDS011;39868;53.398;6.564;2022-08-06T01:31:03;1.48;;;1.48;;
53961;SDS011;39868;53.398;6.564;2022-08-06T01:33:38;1.63;;;1.50;;
53961;SDS011;39868;53.398;6.564;2022-08-06T01:39:15;1.40;;;1.30;;
53961;SDS011;39868;53.398;6.564;2022-08-06T01:42:06;1.40;;;1.30;;
53961;SDS011;39868;53.398;6.564;2022-08-06T01:44:37;1.33;;;1.33;;
53961;SDS011;39868;53.398;6.564;2022-08-06T01:47:15;1.20;;;1.20;;
53961;SDS011;39868;53.398;6.564;2022-08-06T01:49:48;1.33;;;1.23;;
53961;SDS011;39868;53.398;6.564;2022-08-06T01:52:31;1.48;;;1.35;;
53961;SDS011;39868;53.398;6.564;2022-08-06T01:55:07;1.30;;;1.20;;
53961;SDS011;39868;53.398;6.564;2022-08-06T01:57:43;1.55;;;1.40;;
53961;SDS011;39868;53.398;6.564;2022-08-06T02:00:37;1.40;;;1.30;;
53961;SDS011;39868;53.398;6.564;2022-08-06T02:03:19;1.52;;;1.40;;
53961;SDS011;39868;53.398;6.564;2022-08-06T02:06:19;1.83;;;1.67;;
53961;SDS011;39868;53.398;6.564;2022-08-06T02:08:56;1.83;;;1.40;;
53961;SDS011;39868;53.398;6.564;2022-08-06T02:11:49;1.70;;;1.60;;
53961;SDS011;39868;53.398;6.564;2022-08-06T02:14:34;1.40;;;1.40;;
53961;SDS011;39868;53.398;6.564;2022-08-06T02:17:09;1.50;;;1.40;;
53961;SDS011;39868;53.398;6.564;2022-08-06T02:19:48;1.40;;;1.40;;
53961;SDS011;39868;53.398;6.564;2022-08-06T02:22:38;1.40;;;1.40;;
53961;SDS011;39868;53.398;6.564;2022-08-06T02:25:09;1.40;;;1.40;;
53961;SDS011;39868;53.398;6.564;2022-08-06T02:27:53;2.38;;;1.50;;
53961;SDS011;39868;53.398;6.564;2022-08-06T02:33:03;1.42;;;1.33;;
53961;SDS011;39868;53.398;6.564;2022-08-06T02:35:36;1.50;;;1.40;;
53961;SDS011;39868;53.398;6.564;2022-08-06T02:38:10;1.40;;;1.30;;
53961;SDS011;39868;53.398;6.564;2022-08-06T02:40:57;1.38;;;1.30;;
53961;SDS011;39868;53.398;6.564;2022-08-06T02:43:33;1.60;;;1.50;;
53961;SDS011;39868;53.398;6.564;2022-08-06T02:48:47;1.35;;;1.35;;
53961;SDS011;39868;53.398;6.564;2022-08-06T02:51:19;1.63;;;1.52;;
53961;SDS011;39868;53.398;6.564;2022-08-06T02:54:28;1.55;;;1.45;;
53961;SDS011;39868;53.398;6.564;2022-08-06T02:57:14;1.33;;;1.23;;
53961;SDS011;39868;53.398;6.564;2022-08-06T02:59:49;1.35;;;1.27;;
53961;SDS011;39868;53.398;6.564;2022-08-06T03:02:22;2.15;;;1.30;;
53961;SDS011;39868;53.398;6.564;2022-08-06T03:04:52;1.20;;;1.10;;
53961;SDS011;39868;53.398;6.564;2022-08-06T03:07:26;1.25;;;1.25;;
53961;SDS011;39868;53.398;6.564;2022-08-06T03:09:57;1.10;;;1.10;;
53961;SDS011;39868;53.398;6.564;2022-08-06T03:12:27;1.30;;;1.20;;
53961;SDS011;39868;53.398;6.564;2022-08-06T03:14:58;1.30;;;1.30;;
53961;SDS011;39868;53.398;6.564;2022-08-06T03:17:38;1.13;;;1.13;;
53961;SDS011;39868;53.398;6.564;2022-08-06T03:20:12;1.30;;;1.20;;
53961;SDS011;39868;53.398;6.564;2022-08-06T03:22:44;1.25;;;1.25;;
53961;SDS011;39868;53.398;6.564;2022-08-06T03:25:15;1.17;;;1.17;;
53961;SDS011;39868;53.398;6.564;2022-08-06T03:27:49;1.40;;;1.30;;
53961;SDS011;39868;53.398;6.564;2022-08-06T03:30:27;1.27;;;1.20;;
53961;SDS011;39868;53.398;6.564;2022-08-06T03:33:06;1.70;;;1.60;;
53961;SDS011;39868;53.398;6.564;2022-08-06T03:35:56;1.10;;;1.10;;
53961;SDS011;39868;53.398;6.564;2022-08-06T03:38:27;1.23;;;1.05;;
53961;SDS011;39868;53.398;6.564;2022-08-06T03:43:28;1.42;;;1.20;;
53961;SDS011;39868;53.398;6.564;2022-08-06T03:46:23;1.27;;;1.10;;
53961;SDS011;39868;53.398;6.564;2022-08-06T03:48:55;1.45;;;1.20;;
53961;SDS011;39868;53.398;6.564;2022-08-06T03:51:27;1.42;;;1.30;;
53961;SDS011;39868;53.398;6.564;2022-08-06T03:54:17;1.30;;;1.20;;
53961;SDS011;39868;53.398;6.564;2022-08-06T03:56:59;1.27;;;1.17;;
53961;SDS011;39868;53.398;6.564;2022-08-06T03:59:39;1.40;;;1.30;;
53961;SDS011;39868;53.398;6.564;2022-08-06T04:02:30;1.40;;;1.30;;
53961;SDS011;39868;53.398;6.564;2022-08-06T04:05:20;1.35;;;1.13;;
53961;SDS011;39868;53.398;6.564;2022-08-06T04:07:55;1.50;;;1.40;;
53961;SDS011;39868;53.398;6.564;2022-08-06T04:10:31;1.27;;;1.20;;
53961;SDS011;39868;53.398;6.564;2022-08-06T04:13:24;3.75;;;1.58;;
53961;SDS011;39868;53.398;6.564;2022-08-06T04:16:14;2.55;;;1.55;;
53961;SDS011;39868;53.398;6.564;2022-08-06T04:19:01;1.30;;;1.20;;
53961;SDS011;39868;53.398;6.564;2022-08-06T04:21:38;1.40;;;1.30;;
53961;SDS011;39868;53.398;6.564;2022-08-06T04:24:25;1.35;;;1.25;;
53961;SDS011;39868;53.398;6.564;2022-08-06T04:26:56;1.33;;;1.23;;
53961;SDS011;39868;53.398;6.564;2022-08-06T04:29:35;1.70;;;1.20;;
53961;SDS011;39868;53.398;6.564;2022-08-06T04:32:25;1.48;;;1.38;;
53961;SDS011;39868;53.398;6.564;2022-08-06T04:34:57;1.23;;;1.13;;
53961;SDS011;39868;53.398;6.564;2022-08-06T04:37:49;2.28;;;1.10;;
53961;SDS011;39868;53.398;6.564;2022-08-06T04:40:20;1.60;;;1.17;;
53961;SDS011;39868;53.398;6.564;2022-08-06T04:43:01;1.48;;;1.38;;
53961;SDS011;39868;53.398;6.564;2022-08-06T04:45:37;3.00;;;1.30;;
53961;SDS011;39868;53.398;6.564;2022-08-06T04:48:26;2.13;;;1.10;;
53961;SDS011;39868;53.398;6.564;2022-08-06T04:51:02;1.40;;;1.30;;
53961;SDS011;39868;53.398;6.564;2022-08-06T04:53:38;1.40;;;1.30;;
53961;SDS011;39868;53.398;6.564;2022-08-06T04:56:22;1.30;;;1.20;;
53961;SDS011;39868;53.398;6.564;2022-08-06T04:58:58;2.85;;;1.33;;
53961;SDS011;39868;53.398;6.564;2022-08-06T05:01:26;1.50;;;1.40;;
53961;SDS011;39868;53.398;6.564;2022-08-06T05:04:06;1.42;;;1.20;;
53961;SDS011;39868;53.398;6.564;2022-08-06T05:09:38;2.47;;;1.30;;
53961;SDS011;39868;53.398;6.564;2022-08-06T05:12:19;1.25;;;1.15;;
53961;SDS011;39868;53.398;6.564;2022-08-06T05:17:53;1.20;;;1.20;;
53961;SDS011;39868;53.398;6.564;2022-08-06T05:20:26;1.42;;;1.33;;
53961;SDS011;39868;53.398;6.564;2022-08-06T05:23:03;2.28;;;1.45;;
53961;SDS011;39868;53.398;6.564;2022-08-06T05:25:57;1.50;;;1.40;;
53961;SDS011;39868;53.398;6.564;2022-08-06T05:28:25;2.78;;;1.20;;
53961;SDS011;39868;53.398;6.564;2022-08-06T05:30:54;1.45;;;1.35;;
53961;SDS011;39868;53.398;6.564;2022-08-06T05:33:27;1.35;;;1.25;;
53961;SDS011;39868;53.398;6.564;2022-08-06T05:36:12;2.10;;;1.30;;
53961;SDS011;39868;53.398;6.564;2022-08-06T05:38:45;1.98;;;1.25;;
53961;SDS011;39868;53.398;6.564;2022-08-06T05:41:25;1.63;;;1.52;;
53961;SDS011;39868;53.398;6.564;2022-08-06T05:43:55;1.70;;;1.23;;
53961;SDS011;39868;53.398;6.564;2022-08-06T05:46:33;3.55;;;1.52;;
53961;SDS011;39868;53.398;6.564;2022-08-06T05:49:09;1.92;;;1.70;;
53961;SDS011;39868;53.398;6.564;2022-08-06T05:54:55;1.73;;;1.40;;
53961;SDS011;39868;53.398;6.564;2022-08-06T05:57:28;1.90;;;1.58;;
53961;SDS011;39868;53.398;6.564;2022-08-06T06:00:22;2.15;;;1.40;;
53961;SDS011;39868;53.398;6.564;2022-08-06T06:03:09;1.55;;;1.45;;
53961;SDS011;39868;53.398;6.564;2022-08-06T06:05:54;1.70;;;1.60;;
53961;SDS011;39868;53.398;6.564;2022-08-06T06:08:36;1.70;;;1.60;;
53961;SDS011;39868;53.398;6.564;2022-08-06T06:11:21;2.00;;;1.80;;
53961;SDS011;39868;53.398;6.564;2022-08-06T06:14:56;2.08;;;1.63;;
53961;SDS011;39868;53.398;6.564;2022-08-06T06:17:06;1.63;;;1.52;;
53961;SDS011;39868;53.398;6.564;2022-08-06T06:19:55;1.80;;;1.70;;
53961;SDS011;39868;53.398;6.564;2022-08-06T06:25:59;1.98;;;1.63;;
53961;SDS011;39868;53.398;6.564;2022-08-06T06:34:40;1.77;;;1.60;;
53961;SDS011;39868;53.398;6.564;2022-08-06T06:37:18;1.60;;;1.50;;
53961;SDS011;39868;53.398;6.564;2022-08-06T06:45:43;1.98;;;1.88;;
53961;SDS011;39868;53.398;6.564;2022-08-06T06:49:00;1.90;;;1.80;;
53961;SDS011;39868;53.398;6.564;2022-08-06T06:51:35;1.70;;;1.60;;
53961;SDS011;39868;53.398;6.564;2022-08-06T06:54:28;2.13;;;1.63;;
53961;SDS011;39868;53.398;6.564;2022-08-06T06:57:03;1.60;;;1.50;;
53961;SDS011;39868;53.398;6.564;2022-08-06T06:59:36;2.75;;;1.77;;
53961;SDS011;39868;53.398;6.564;2022-08-06T07:02:27;2.13;;;2.03;;
53961;SDS011;39868;53.398;6.564;2022-08-06T07:05:00;1.85;;;1.63;;
53961;SDS011;39868;53.398;6.564;2022-08-06T07:07:34;2.65;;;1.95;;
53961;SDS011;39868;53.398;6.564;2022-08-06T07:10:06;2.60;;;1.95;;
53961;SDS011;39868;53.398;6.564;2022-08-06T07:12:37;3.08;;;1.80;;
53961;SDS011;39868;53.398;6.564;2022-08-06T07:15:07;1.92;;;1.83;;
53961;SDS011;39868;53.398;6.564;2022-08-06T07:17:44;1.65;;;1.50;;
53961;SDS011;39868;53.398;6.564;2022-08-06T07:20:33;1.67;;;1.58;;
53961;SDS011;39868;53.398;6.564;2022-08-06T07:23:08;1.70;;;1.60;;
53961;SDS011;39868;53.398;6.564;2022-08-06T07:25:56;2.45;;;1.80;;
53961;SDS011;39868;53.398;6.564;2022-08-06T07:28:26;1.95;;;1.85;;
53961;SDS011;39868;53.398;6.564;2022-08-06T07:30:58;2.60;;;1.90;;
53961;SDS011;39868;53.398;6.564;2022-08-06T07:33:37;1.90;;;1.80;;
53961;SDS011;39868;53.398;6.564;2022-08-06T07:36:26;2.10;;;1.95;;
53961;SDS011;39868;53.398;6.564;2022-08-06T07:39:06;2.20;;;2.10;;
53961;SDS011;39868;53.398;6.564;2022-08-06T07:41:41;1.90;;;1.70;;
53961;SDS011;39868;53.398;6.564;2022-08-06T07:44:31;1.80;;;1.70;;
53961;SDS011;39868;53.398;6.564;2022-08-06T07:47:26;2.73;;;2.00;;
53961;SDS011;39868;53.398;6.564;2022-08-06T07:50:17;2.30;;;2.20;;
53961;SDS011;39868;53.398;6.564;2022-08-06T07:52:50;2.60;;;2.20;;
53961;SDS011;39868;53.398;6.564;2022-08-06T07:55:22;4.60;;;2.00;;
53961;SDS011;39868;53.398;6.564;2022-08-06T07:58:05;2.40;;;2.20;;
53961;SDS011;39868;53.398;6.564;2022-08-06T08:00:35;2.72;;;2.53;;
53961;SDS011;39868;53.398;6.564;2022-08-06T08:03:05;2.40;;;2.20;;
53961;SDS011;39868;53.398;6.564;2022-08-06T08:06:12;2.17;;;1.80;;
53961;SDS011;39868;53.398;6.564;2022-08-06T08:08:51;2.10;;;2.00;;
53961;SDS011;39868;53.398;6.564;2022-08-06T08:11:24;2.70;;;2.50;;
53961;SDS011;39868;53.398;6.564;2022-08-06T08:14:14;4.00;;;2.50;;
53961;SDS011;39868;53.398;6.564;2022-08-06T08:16:45;2.47;;;2.28;;
53961;SDS011;39868;53.398;6.564;2022-08-06T08:19:28;5.00;;;2.80;;
53961;SDS011;39868;53.398;6.564;2022-08-06T08:22:02;2.85;;;2.42;;
53961;SDS011;39868;53.398;6.564;2022-08-06T08:24:39;4.10;;;2.63;;
53961;SDS011;39868;53.398;6.564;2022-08-06T08:27:19;2.55;;;2.33;;
53961;SDS011;39868;53.398;6.564;2022-08-06T08:29:51;2.80;;;2.60;;
53961;SDS011;39868;53.398;6.564;2022-08-06T08:32:20;2.38;;;2.20;;
53961;SDS011;39868;53.398;6.564;2022-08-06T08:34:49;4.22;;;2.30;;
53961;SDS011;39868;53.398;6.564;2022-08-06T08:37:20;2.58;;;2.38;;
53961;SDS011;39868;53.398;6.564;2022-08-06T08:39:47;2.63;;;2.42;;
53961;SDS011;39868;53.398;6.564;2022-08-06T08:42:17;3.25;;;2.30;;
53961;SDS011;39868;53.398;6.564;2022-08-06T08:44:58;2.60;;;2.40;;
53961;SDS011;39868;53.398;6.564;2022-08-06T08:47:29;3.15;;;2.20;;
53961;SDS011;39868;53.398;6.564;2022-08-06T08:50:22;4.65;;;2.40;;
53961;SDS011;39868;53.398;6.564;2022-08-06T08:53:00;2.40;;;2.20;;
53961;SDS011;39868;53.398;6.564;2022-08-06T08:55:34;3.28;;;2.65;;
53961;SDS011;39868;53.398;6.564;2022-08-06T08:58:22;2.50;;;2.30;;
53961;SDS011;39868;53.398;6.564;2022-08-06T09:01:08;3.00;;;2.30;;
53961;SDS011;39868;53.398;6.564;2022-08-06T09:03:56;2.88;;;2.42;;
53961;SDS011;39868;53.398;6.564;2022-08-06T09:06:27;2.50;;;2.27;;
53961;SDS011;39868;53.398;6.564;2022-08-06T09:09:01;2.65;;;2.10;;
53961;SDS011;39868;53.398;6.564;2022-08-06T09:11:35;2.58;;;2.28;;
53961;SDS011;39868;53.398;6.564;2022-08-06T09:14:23;2.97;;;2.67;;
53961;SDS011;39868;53.398;6.564;2022-08-06T09:16:58;2.80;;;2.45;;
53961;SDS011;39868;53.398;6.564;2022-08-06T09:19:29;4.22;;;3.03;;
53961;SDS011;39868;53.398;6.564;2022-08-06T09:22:05;3.53;;;3.00;;
53961;SDS011;39868;53.398;6.564;2022-08-06T09:24:35;5.78;;;3.13;;
53961;SDS011;39868;53.398;6.564;2022-08-06T09:27:09;3.10;;;2.80;;
53961;SDS011;39868;53.398;6.564;2022-08-06T09:30:00;2.63;;;2.42;;
53961;SDS011;39868;53.398;6.564;2022-08-06T09:32:50;4.43;;;3.03;;
53961;SDS011;39868;53.398;6.564;2022-08-06T09:38:12;3.50;;;3.20;;
53961;SDS011;39868;53.398;6.564;2022-08-06T09:41:01;3.40;;;3.10;;
53961;SDS011;39868;53.398;6.564;2022-08-06T09:43:42;2.45;;;2.25;;
53961;SDS011;39868;53.398;6.564;2022-08-06T09:46:38;3.08;;;2.78;;
53961;SDS011;39868;53.398;6.564;2022-08-06T09:49:15;2.90;;;2.70;;
53961;SDS011;39868;53.398;6.564;2022-08-06T09:52:10;3.38;;;2.67;;
53961;SDS011;39868;53.398;6.564;2022-08-06T09:54:39;3.75;;;2.85;;
53961;SDS011;39868;53.398;6.564;2022-08-06T09:57:08;4.57;;;2.95;;
53961;SDS011;39868;53.398;6.564;2022-08-06T09:59:46;3.35;;;2.60;;
53961;SDS011;39868;53.398;6.564;2022-08-06T10:02:19;3.05;;;2.75;;
53961;SDS011;39868;53.398;6.564;2022-08-06T10:05:07;4.05;;;3.05;;
53961;SDS011;39868;53.398;6.564;2022-08-06T10:07:46;3.58;;;2.88;;
53961;SDS011;39868;53.398;6.564;2022-08-06T10:10:19;5.20;;;3.00;;
53961;SDS011;39868;53.398;6.564;2022-08-06T10:13:25;3.53;;;2.73;;
53961;SDS011;39868;53.398;6.564;2022-08-06T10:18:47;2.88;;;2.67;;
53961;SDS011;39868;53.398;6.564;2022-08-06T10:21:26;4.50;;;2.72;;
53961;SDS011;39868;53.398;6.564;2022-08-06T10:24:08;4.40;;;2.75;;
53961;SDS011;39868;53.398;6.564;2022-08-06T10:26:37;3.53;;;2.95;;
53961;SDS011;39868;53.398;6.564;2022-08-06T10:29:09;3.50;;;3.03;;
53961;SDS011;39868;53.398;6.564;2022-08-06T10:31:40;5.30;;;3.35;;
53961;SDS011;39868;53.398;6.564;2022-08-06T10:34:09;3.35;;;3.05;;
53961;SDS011;39868;53.398;6.564;2022-08-06T10:39:14;5.13;;;3.30;;
53961;SDS011;39868;53.398;6.564;2022-08-06T10:42:03;3.78;;;2.90;;
53961;SDS011;39868;53.398;6.564;2022-08-06T10:44:43;4.10;;;3.47;;
53961;SDS011;39868;53.398;6.564;2022-08-06T10:47:12;5.72;;;3.78;;
53961;SDS011;39868;53.398;6.564;2022-08-06T10:50:01;3.53;;;3.17;;
53961;SDS011;39868;53.398;6.564;2022-08-06T10:52:49;3.45;;;3.15;;
53961;SDS011;39868;53.398;6.564;2022-08-06T10:55:17;5.63;;;3.30;;
53961;SDS011;39868;53.398;6.564;2022-08-06T10:57:48;4.63;;;3.83;;
53961;SDS011;39868;53.398;6.564;2022-08-06T11:00:19;4.45;;;3.60;;
53961;SDS011;39868;53.398;6.564;2022-08-06T11:05:39;3.97;;;3.25;;
53961;SDS011;39868;53.398;6.564;2022-08-06T11:14:35;4.63;;;3.47;;
53961;SDS011;39868;53.398;6.564;2022-08-06T11:17:05;4.80;;;3.55;;
53961;SDS011;39868;53.398;6.564;2022-08-06T11:19:41;5.28;;;3.25;;
53961;SDS011;39868;53.398;6.564;2022-08-06T11:22:32;4.65;;;3.63;;
53961;SDS011;39868;53.398;6.564;2022-08-06T11:25:01;4.80;;;3.28;;
53961;SDS011;39868;53.398;6.564;2022-08-06T11:27:55;4.07;;;3.33;;
53961;SDS011;39868;53.398;6.564;2022-08-06T11:30:38;4.20;;;3.05;;
53961;SDS011;39868;53.398;6.564;2022-08-06T11:36:08;5.43;;;3.50;;
53961;SDS011;39868;53.398;6.564;2022-08-06T11:41:24;4.47;;;3.83;;
53961;SDS011;39868;53.398;6.564;2022-08-06T11:44:15;4.72;;;3.75;;
53961;SDS011;39868;53.398;6.564;2022-08-06T11:50:03;4.57;;;3.77;;
53961;SDS011;39868;53.398;6.564;2022-08-06T11:52:53;5.03;;;3.42;;
53961;SDS011;39868;53.398;6.564;2022-08-06T11:55:21;4.28;;;3.53;;
53961;SDS011;39868;53.398;6.564;2022-08-06T12:00:58;5.35;;;3.80;;
53961;SDS011;39868;53.398;6.564;2022-08-06T12:03:47;3.90;;;3.50;;
53961;SDS011;39868;53.398;6.564;2022-08-06T12:06:22;6.85;;;3.78;;
53961;SDS011;39868;53.398;6.564;2022-08-06T12:09:09;4.18;;;3.60;;
53961;SDS011;39868;53.398;6.564;2022-08-06T12:14:52;4.72;;;3.47;;
53961;SDS011;39868;53.398;6.564;2022-08-06T12:17:32;5.05;;;3.60;;
53961;SDS011;39868;53.398;6.564;2022-08-06T12:20:32;3.50;;;3.20;;
53961;SDS011;39868;53.398;6.564;2022-08-06T12:23:15;4.55;;;3.70;;
53961;SDS011;39868;53.398;6.564;2022-08-06T12:25:46;4.72;;;3.55;;
53961;SDS011;39868;53.398;6.564;2022-08-06T12:28:16;3.80;;;3.42;;
53961;SDS011;39868;53.398;6.564;2022-08-06T12:30:47;3.40;;;3.10;;
53961;SDS011;39868;53.398;6.564;2022-08-06T12:33:17;4.22;;;3.78;;
53961;SDS011;39868;53.398;6.564;2022-08-06T12:38:24;4.70;;;4.03;;
53961;SDS011;39868;53.398;6.564;2022-08-06T12:43:35;3.65;;;3.30;;
53961;SDS011;39868;53.398;6.564;2022-08-06T12:46:22;4.43;;;3.50;;
53961;SDS011;39868;53.398;6.564;2022-08-06T12:48:56;4.55;;;4.00;;
53961;SDS011;39868;53.398;6.564;2022-08-06T12:51:29;4.15;;;3.70;;
53961;SDS011;39868;53.398;6.564;2022-08-06T12:54:02;4.32;;;3.65;;
53961;SDS011;39868;53.398;6.564;2022-08-06T12:56:35;5.75;;;3.80;;
53961;SDS011;39868;53.398;6.564;2022-08-06T12:59:07;5.40;;;3.87;;
53961;SDS011;39868;53.398;6.564;2022-08-06T13:01:50;4.78;;;3.78;;
53961;SDS011;39868;53.398;6.564;2022-08-06T13:04:43;5.35;;;4.28;;
53961;SDS011;39868;53.398;6.564;2022-08-06T13:07:14;5.10;;;4.07;;
53961;SDS011;39868;53.398;6.564;2022-08-06T13:09:46;4.95;;;3.85;;
53961;SDS011;39868;53.398;6.564;2022-08-06T13:12:34;4.20;;;3.75;;
53961;SDS011;39868;53.398;6.564;2022-08-06T13:15:22;4.60;;;4.10;;
53961;SDS011;39868;53.398;6.564;2022-08-06T13:21:03;6.40;;;3.92;;
53961;SDS011;39868;53.398;6.564;2022-08-06T13:23:52;4.63;;;3.70;;
53961;SDS011;39868;53.398;6.564;2022-08-06T13:26:21;8.25;;;4.32;;
53961;SDS011;39868;53.398;6.564;2022-08-06T13:29:06;3.42;;;3.13;;
53961;SDS011;39868;53.398;6.564;2022-08-06T13:31:59;3.88;;;3.47;;
53961;SDS011;39868;53.398;6.564;2022-08-06T13:34:58;5.20;;;4.10;;
53961;SDS011;39868;53.398;6.564;2022-08-06T13:37:42;4.43;;;3.90;;
53961;SDS011;39868;53.398;6.564;2022-08-06T13:40:47;5.63;;;4.30;;
53961;SDS011;39868;53.398;6.564;2022-08-06T13:46:16;7.28;;;4.15;;
53961;SDS011;39868;53.398;6.564;2022-08-06T13:48:57;7.18;;;4.03;;
53961;SDS011;39868;53.398;6.564;2022-08-06T13:51:39;6.43;;;3.75;;
53961;SDS011;39868;53.398;6.564;2022-08-06T13:54:20;4.10;;;3.70;;
53961;SDS011;39868;53.398;6.564;2022-08-06T13:56:51;5.93;;;3.80;;
53961;SDS011;39868;53.398;6.564;2022-08-06T13:59:22;7.40;;;3.83;;
53961;SDS011;39868;53.398;6.564;2022-08-06T14:02:06;3.95;;;3.40;;
53961;SDS011;39868;53.398;6.564;2022-08-06T14:04:37;4.32;;;3.20;;
53961;SDS011;39868;53.398;6.564;2022-08-06T14:07:06;3.80;;;3.38;;
53961;SDS011;39868;53.398;6.564;2022-08-06T14:09:34;4.43;;;3.63;;
53961;SDS011;39868;53.398;6.564;2022-08-06T14:12:21;3.72;;;3.33;;
53961;SDS011;39868;53.398;6.564;2022-08-06T14:14:55;4.55;;;3.22;;
53961;SDS011;39868;53.398;6.564;2022-08-06T14:17:24;3.90;;;3.50;;
53961;SDS011;39868;53.398;6.564;2022-08-06T14:20:01;3.10;;;2.80;;
53961;SDS011;39868;53.398;6.564;2022-08-06T14:22:47;3.47;;;3.10;;
53961;SDS011;39868;53.398;6.564;2022-08-06T14:25:15;4.25;;;3.60;;
53961;SDS011;39868;53.398;6.564;2022-08-06T14:27:42;3.72;;;3.42;;
53961;SDS011;39868;53.398;6.564;2022-08-06T14:30:12;4.55;;;3.58;;
53961;SDS011;39868;53.398;6.564;2022-08-06T14:32:59;3.47;;;3.17;;
53961;SDS011;39868;53.398;6.564;2022-08-06T14:35:36;3.42;;;3.13;;
53961;SDS011;39868;53.398;6.564;2022-08-06T14:38:16;4.20;;;2.83;;
53961;SDS011;39868;53.398;6.564;2022-08-06T14:40:44;3.28;;;2.97;;
53961;SDS011;39868;53.398;6.564;2022-08-06T14:43:35;3.75;;;2.90;;
53961;SDS011;39868;53.398;6.564;2022-08-06T14:46:27;3.83;;;3.00;;
53961;SDS011;39868;53.398;6.564;2022-08-06T14:48:58;3.03;;;2.70;;
53961;SDS011;39868;53.398;6.564;2022-08-06T14:51:35;4.45;;;3.10;;
53961;SDS011;39868;53.398;6.564;2022-08-06T14:54:22;3.13;;;2.83;;
53961;SDS011;39868;53.398;6.564;2022-08-06T14:57:00;3.00;;;2.70;;
53961;SDS011;39868;53.398;6.564;2022-08-06T14:59:49;3.58;;;3.00;;
53961;SDS011;39868;53.398;6.564;2022-08-06T15:02:20;5.45;;;3.35;;
53961;SDS011;39868;53.398;6.564;2022-08-06T15:04:50;4.28;;;3.20;;
53961;SDS011;39868;53.398;6.564;2022-08-06T15:07:21;4.50;;;2.87;;
53961;SDS011;39868;53.398;6.564;2022-08-06T15:10:07;3.28;;;2.97;;
53961;SDS011;39868;53.398;6.564;2022-08-06T15:12:53;3.47;;;3.10;;
53961;SDS011;39868;53.398;6.564;2022-08-06T15:15:32;3.10;;;2.80;;
53961;SDS011;39868;53.398;6.564;2022-08-06T15:18:13;2.70;;;2.50;;
53961;SDS011;39868;53.398;6.564;2022-08-06T15:21:01;13.48;;;3.70;;
53961;SDS011;39868;53.398;6.564;2022-08-06T15:23:30;6.35;;;3.63;;
53961;SDS011;39868;53.398;6.564;2022-08-06T15:26:17;4.45;;;3.20;;
53961;SDS011;39868;53.398;6.564;2022-08-06T15:29:05;3.35;;;3.05;;
53961;SDS011;39868;53.398;6.564;2022-08-06T15:31:40;3.22;;;2.60;;
53961;SDS011;39868;53.398;6.564;2022-08-06T15:34:08;3.10;;;2.88;;
53961;SDS011;39868;53.398;6.564;2022-08-06T15:36:39;2.92;;;2.72;;
53961;SDS011;39868;53.398;6.564;2022-08-06T15:39:27;3.00;;;2.75;;
53961;SDS011;39868;53.398;6.564;2022-08-06T15:42:19;3.35;;;2.83;;
53961;SDS011;39868;53.398;6.564;2022-08-06T15:44:50;2.80;;;2.60;;
53961;SDS011;39868;53.398;6.564;2022-08-06T15:47:22;5.70;;;2.75;;
53961;SDS011;39868;53.398;6.564;2022-08-06T15:49:58;3.20;;;3.00;;
53961;SDS011;39868;53.398;6.564;2022-08-06T15:52:32;2.85;;;2.63;;
53961;SDS011;39868;53.398;6.564;2022-08-06T15:55:09;3.13;;;2.83;;
53961;SDS011;39868;53.398;6.564;2022-08-06T15:57:45;12.57;;;3.17;;
53961;SDS011;39868;53.398;6.564;2022-08-06T16:00:36;2.53;;;2.33;;
53961;SDS011;39868;53.398;6.564;2022-08-06T16:03:24;3.10;;;2.70;;
53961;SDS011;39868;53.398;6.564;2022-08-06T16:05:53;4.30;;;2.67;;
53961;SDS011;39868;53.398;6.564;2022-08-06T16:08:37;3.63;;;2.70;;
53961;SDS011;39868;53.398;6.564;2022-08-06T16:11:14;4.15;;;2.63;;
53961;SDS011;39868;53.398;6.564;2022-08-06T16:13:45;2.45;;;2.25;;
53961;SDS011;39868;53.398;6.564;2022-08-06T16:16:20;2.60;;;2.40;;
53961;SDS011;39868;53.398;6.564;2022-08-06T16:18:59;2.95;;;2.40;;
53961;SDS011;39868;53.398;6.564;2022-08-06T16:21:31;4.60;;;3.00;;
53961;SDS011;39868;53.398;6.564;2022-08-06T16:24:00;3.53;;;2.40;;
53961;SDS011;39868;53.398;6.564;2022-08-06T16:26:31;2.50;;;2.30;;
53961;SDS011;39868;53.398;6.564;2022-08-06T16:29:16;2.95;;;2.30;;
53961;SDS011;39868;53.398;6.564;2022-08-06T16:31:46;4.95;;;2.75;;
53961;SDS011;39868;53.398;6.564;2022-08-06T16:34:19;3.28;;;2.45;;
53961;SDS011;39868;53.398;6.564;2022-08-06T16:36:55;2.55;;;2.35;;
53961;SDS011;39868;53.398;6.564;2022-08-06T16:39:25;2.50;;;2.30;;
53961;SDS011;39868;53.398;6.564;2022-08-06T16:42:06;3.35;;;2.17;;
53961;SDS011;39868;53.398;6.564;2022-08-06T16:44:36;2.65;;;2.45;;
53961;SDS011;39868;53.398;6.564;2022-08-06T16:47:24;2.42;;;2.17;;
53961;SDS011;39868;53.398;6.564;2022-08-06T16:50:12;3.75;;;2.85;;
53961;SDS011;39868;53.398;6.564;2022-08-06T16:52:50;3.10;;;2.40;;
53961;SDS011;39868;53.398;6.564;2022-08-06T16:55:38;5.28;;;2.47;;
53961;SDS011;39868;53.398;6.564;2022-08-06T16:58:25;2.70;;;2.50;;
53961;SDS011;39868;53.398;6.564;2022-08-06T17:01:02;2.42;;;2.22;;
53961;SDS011;39868;53.398;6.564;2022-08-06T17:03:51;5.22;;;2.45;;
53961;SDS011;39868;53.398;6.564;2022-08-06T17:06:42;3.65;;;2.30;;
53961;SDS011;39868;53.398;6.564;2022-08-06T17:09:12;2.87;;;2.30;;
53961;SDS011;39868;53.398;6.564;2022-08-06T17:11:44;4.70;;;2.30;;
53961;SDS011;39868;53.398;6.564;2022-08-06T17:14:34;3.00;;;2.20;;
53961;SDS011;39868;53.398;6.564;2022-08-06T17:17:17;3.22;;;2.30;;
53961;SDS011;39868;53.398;6.564;2022-08-06T17:20:06;3.45;;;2.08;;